createdAt,value
2023-08-21T00:01:19.486Z,12.02
2023-08-21T00:03:59.824Z,10.85
2023-08-21T00:06:39.980Z,12.90
2023-08-21T00:09:20.343Z,10.32
2023-08-21T00:12:00.460Z,10.68
2023-08-21T00:14:40.818Z,10.35
2023-08-21T00:17:21.057Z,10.55
2023-08-21T00:20:01.102Z,15.20
2023-08-21T00:22:41.265Z,17.45
2023-08-21T00:25:22.963Z,13.00
2023-08-21T00:28:03.126Z,11.88
2023-08-21T00:30:43.464Z,10.95
2023-08-21T00:33:23.438Z,11.32
2023-08-21T00:36:04.297Z,12.40
2023-08-21T00:38:44.331Z,10.45
2023-08-21T00:41:25.003Z,11.20
2023-08-21T00:44:05.168Z,14.55
2023-08-21T00:46:45.669Z,15.85
2023-08-21T00:49:26.256Z,13.00
2023-08-21T00:52:11.847Z,10.70
2023-08-21T00:54:51.832Z,16.73
2023-08-21T00:57:33.007Z,11.73
2023-08-21T01:00:14.196Z,15.55
2023-08-21T01:02:54.533Z,12.00
2023-08-21T01:05:36.239Z,12.73
2023-08-21T01:08:31.331Z,15.70
2023-08-21T01:11:49.211Z,16.13
2023-08-21T01:14:34.512Z,13.95
2023-08-21T01:17:17.878Z,12.15
2023-08-21T01:19:59.781Z,14.88
2023-08-21T01:22:41.672Z,11.90
2023-08-21T01:25:21.743Z,15.40
2023-08-21T01:28:02.265Z,15.70
2023-08-21T01:30:43.276Z,12.45
2023-08-21T01:33:25.441Z,15.00
2023-08-21T01:36:05.621Z,13.18
2023-08-21T01:38:45.992Z,12.38
2023-08-21T01:41:26.782Z,10.23
2023-08-21T01:44:06.714Z,11.32
2023-08-21T01:46:46.688Z,10.20
2023-08-21T01:49:26.701Z,12.80
2023-08-21T01:52:06.880Z,15.82
2023-08-21T01:54:49.127Z,15.40
2023-08-21T01:57:29.223Z,16.02
2023-08-21T02:00:10.317Z,12.25
2023-08-21T02:02:50.576Z,11.27
2023-08-21T02:05:31.047Z,12.57
2023-08-21T02:08:14.951Z,14.60
2023-08-21T02:10:55.202Z,11.18
2023-08-21T02:13:35.451Z,14.20
2023-08-21T02:16:15.605Z,13.05
2023-08-21T02:18:56.148Z,13.40
2023-08-21T02:21:37.630Z,14.35
2023-08-21T02:24:18.135Z,19.02
2023-08-21T02:26:58.334Z,20.65
2023-08-21T02:29:38.673Z,18.25
2023-08-21T02:32:18.622Z,15.07
2023-08-21T02:34:58.689Z,21.65
2023-08-21T02:37:40.165Z,18.45
2023-08-21T02:40:20.409Z,19.23
2023-08-21T02:43:00.386Z,19.55
2023-08-21T02:45:40.406Z,19.23
2023-08-21T02:48:20.438Z,15.88
2023-08-21T02:51:01.614Z,19.13
2023-08-21T02:53:42.879Z,15.38
2023-08-21T02:56:23.206Z,19.65
2023-08-21T02:59:03.441Z,19.52
2023-08-21T03:01:43.460Z,16.25
2023-08-21T03:04:24.229Z,13.98
2023-08-21T03:07:04.331Z,18.90
2023-08-21T03:09:47.233Z,15.40
2023-08-21T03:12:27.336Z,14.15
2023-08-21T03:15:08.231Z,12.88
2023-08-21T03:17:48.288Z,16.85
2023-08-21T03:20:28.414Z,13.15
2023-08-21T03:23:08.425Z,13.90
2023-08-21T03:25:48.593Z,11.52
2023-08-21T03:28:28.644Z,11.80
2023-08-21T03:31:09.156Z,11.55
2023-08-21T03:33:49.418Z,15.52
2023-08-21T03:36:33.471Z,13.98
2023-08-21T03:39:13.809Z,14.50
2023-08-21T03:41:53.759Z,15.57
2023-08-21T03:44:34.749Z,24.60
2023-08-21T03:47:15.110Z,15.05
2023-08-21T03:49:55.333Z,14.65
2023-08-21T03:52:36.246Z,16.80
2023-08-21T03:55:16.819Z,14.90
2023-08-21T03:57:57.046Z,17.52
2023-08-21T04:00:37.001Z,16.40
2023-08-21T04:03:17.470Z,20.05
2023-08-21T04:05:57.725Z,19.42
2023-08-21T04:08:37.791Z,14.35
2023-08-21T04:11:18.123Z,15.38
2023-08-21T04:14:00.157Z,13.35
2023-08-21T04:16:40.339Z,13.20
2023-08-21T04:19:20.489Z,12.85
2023-08-21T04:22:00.930Z,11.95
2023-08-21T04:24:42.376Z,13.52
2023-08-21T04:27:22.628Z,13.68
2023-08-21T04:30:02.677Z,15.48
2023-08-21T04:32:43.051Z,14.18
2023-08-21T04:35:23.408Z,14.10
2023-08-21T04:38:03.536Z,11.70
2023-08-21T04:40:43.792Z,11.90
2023-08-21T04:43:23.879Z,11.57
2023-08-21T04:46:05.281Z,12.18
2023-08-21T04:48:45.489Z,11.13
2023-08-21T04:51:25.895Z,12.20
2023-08-21T04:54:06.057Z,17.13
2023-08-21T04:56:46.153Z,17.30
2023-08-21T04:59:26.437Z,20.50
2023-08-21T05:02:07.350Z,16.67
2023-08-21T05:04:47.639Z,19.15
2023-08-21T05:07:30.449Z,16.60
2023-08-21T05:10:10.933Z,15.85
2023-08-21T05:12:51.281Z,16.25
2023-08-21T05:15:31.448Z,12.80
2023-08-21T05:18:11.431Z,12.80
2023-08-21T05:20:54.558Z,13.93
2023-08-21T05:23:34.583Z,15.88
2023-08-21T05:26:14.684Z,57.88
2023-08-21T05:28:55.086Z,16.48
2023-08-21T05:31:35.233Z,14.05
2023-08-21T05:34:15.442Z,13.63
2023-08-21T05:36:55.712Z,14.50
2023-08-21T05:39:36.019Z,13.25
2023-08-21T05:42:16.146Z,12.23
2023-08-21T05:44:56.353Z,12.82
2023-08-21T05:47:36.335Z,13.30
2023-08-21T05:50:16.759Z,12.35
2023-08-21T05:52:58.959Z,14.43
2023-08-21T05:55:39.137Z,12.40
2023-08-21T05:58:19.149Z,11.95
2023-08-21T06:01:00.436Z,13.27
2023-08-21T06:03:40.783Z,12.07
2023-08-21T06:06:21.253Z,11.77
2023-08-21T06:09:01.975Z,10.65
2023-08-21T06:11:42.382Z,10.35
2023-08-21T06:14:29.804Z,9.52
2023-08-21T06:17:10.445Z,9.82
2023-08-21T06:19:50.642Z,9.73
2023-08-21T06:22:30.670Z,9.75
2023-08-21T06:25:11.118Z,9.30
2023-08-21T06:27:58.658Z,9.98
2023-08-21T06:30:40.226Z,9.73
2023-08-21T06:33:20.509Z,10.25
2023-08-21T06:36:00.964Z,11.88
2023-08-21T06:38:41.133Z,11.52
2023-08-21T06:41:21.249Z,10.90
2023-08-21T06:44:01.594Z,10.90
2023-08-21T06:46:41.850Z,11.63
2023-08-21T06:49:21.941Z,11.90
2023-08-21T06:52:03.944Z,11.15
2023-08-21T06:54:43.978Z,11.02
2023-08-21T06:57:24.349Z,14.20
2023-08-21T07:00:07.318Z,13.82
2023-08-21T07:02:47.601Z,11.50
2023-08-21T07:05:28.010Z,11.18
2023-08-21T07:08:08.873Z,11.82
2023-08-21T07:10:49.307Z,11.52
2023-08-21T07:13:36.266Z,12.13
2023-08-21T07:16:16.548Z,14.07
2023-08-21T07:18:57.333Z,11.38
2023-08-21T07:21:39.354Z,12.75
2023-08-21T07:24:19.468Z,13.30
2023-08-21T07:26:59.780Z,12.60
2023-08-21T07:29:40.056Z,13.45
2023-08-21T07:32:31.013Z,12.57
2023-08-21T07:35:11.837Z,13.95
2023-08-21T07:37:52.019Z,12.88
2023-08-21T07:40:31.873Z,13.57
2023-08-21T07:43:12.371Z,11.57
2023-08-21T07:45:52.636Z,14.65
2023-08-21T07:48:33.934Z,13.82
2023-08-21T07:51:14.329Z,12.20
2023-08-21T07:53:54.606Z,12.68
2023-08-21T07:56:36.645Z,13.13
2023-08-21T07:59:16.745Z,13.82
2023-08-21T08:01:57.350Z,14.43
2023-08-21T08:04:37.618Z,13.98
2023-08-21T08:07:18.189Z,15.15
2023-08-21T08:09:58.304Z,13.18
2023-08-21T08:12:38.672Z,12.90
2023-08-21T08:15:19.381Z,15.90
2023-08-21T08:17:59.479Z,12.05
2023-08-21T08:20:40.242Z,13.77
2023-08-21T08:23:21.992Z,12.45
2023-08-21T08:26:03.224Z,18.83
2023-08-21T08:28:43.811Z,16.58
2023-08-21T08:31:26.208Z,14.45
2023-08-21T08:34:06.640Z,15.43
2023-08-21T08:36:47.254Z,13.10
2023-08-21T08:39:27.475Z,14.20
2023-08-21T08:42:09.003Z,14.07
2023-08-21T08:44:50.390Z,15.20
2023-08-21T08:47:34.675Z,12.88
2023-08-21T08:50:15.831Z,11.93
2023-08-21T08:53:06.422Z,14.02
2023-08-21T08:55:55.305Z,11.55
2023-08-21T08:58:35.712Z,13.55
2023-08-21T09:01:16.064Z,14.40
2023-08-21T09:03:56.357Z,14.15
2023-08-21T09:06:37.048Z,10.38
2023-08-21T09:09:17.259Z,12.82
2023-08-21T09:11:57.848Z,10.68
2023-08-21T09:14:37.901Z,13.57
2023-08-21T09:17:18.183Z,13.10
2023-08-21T09:20:05.565Z,11.85
2023-08-21T09:22:55.276Z,10.85
2023-08-21T09:25:38.177Z,14.57
2023-08-21T09:28:25.082Z,10.32
2023-08-21T09:31:05.123Z,13.07
2023-08-21T09:33:56.128Z,12.00
2023-08-21T09:36:36.956Z,13.75
2023-08-21T09:39:19.456Z,9.90
2023-08-21T09:42:00.189Z,16.92
2023-08-21T09:44:42.586Z,11.27
2023-08-21T09:47:25.043Z,11.07
2023-08-21T09:50:05.680Z,12.38
2023-08-21T09:52:46.410Z,8.30
2023-08-21T09:55:27.995Z,8.85
2023-08-21T09:58:08.668Z,8.05
2023-08-21T10:00:50.545Z,8.60
2023-08-21T10:03:31.264Z,9.25
2023-08-21T10:06:12.411Z,9.50
2023-08-21T10:08:55.417Z,9.55
2023-08-21T10:11:35.668Z,6.90
2023-08-21T10:14:16.384Z,9.50
2023-08-21T10:16:57.265Z,8.45
2023-08-21T10:19:37.301Z,7.28
2023-08-21T10:22:38.979Z,7.25
2023-08-21T10:25:23.398Z,7.00
2023-08-21T10:28:06.187Z,11.00
2023-08-21T10:30:46.467Z,11.23
2023-08-21T10:33:48.394Z,8.38
2023-08-21T10:36:43.810Z,6.47
2023-08-21T10:39:23.871Z,6.57
2023-08-21T10:42:10.776Z,8.85
2023-08-21T10:44:53.701Z,8.07
2023-08-21T10:47:35.870Z,7.45
2023-08-21T10:50:16.082Z,6.50
2023-08-21T10:52:56.444Z,6.13
2023-08-21T10:55:38.282Z,7.95
2023-08-21T10:58:18.602Z,7.20
2023-08-21T11:01:01.825Z,5.63
2023-08-21T11:03:46.177Z,7.28
2023-08-21T11:06:26.576Z,8.07
2023-08-21T11:09:13.247Z,5.38
2023-08-21T11:12:36.101Z,5.47
2023-08-21T11:15:19.837Z,5.85
2023-08-21T11:18:04.288Z,6.15
2023-08-21T11:20:44.738Z,6.40
2023-08-21T11:23:33.650Z,8.10
2023-08-21T11:26:21.300Z,6.57
2023-08-21T11:29:03.744Z,6.47
2023-08-21T11:31:48.433Z,7.55
2023-08-21T11:34:28.596Z,6.40
2023-08-21T11:37:09.340Z,4.65
2023-08-21T11:39:50.769Z,4.55
2023-08-21T11:42:37.834Z,5.32
2023-08-21T11:45:23.046Z,5.80
2023-08-21T11:48:04.341Z,5.80
2023-08-21T11:50:45.745Z,5.68
2023-08-21T11:53:37.986Z,5.53
2023-08-21T11:56:18.610Z,6.43
2023-08-21T11:59:02.384Z,4.45
2023-08-21T12:01:43.235Z,7.85
2023-08-21T12:04:23.289Z,4.68
2023-08-21T12:07:03.466Z,4.25
2023-08-21T12:09:49.033Z,4.10
2023-08-21T12:12:29.121Z,4.28
2023-08-21T12:15:09.944Z,4.57
2023-08-21T12:17:50.428Z,4.03
2023-08-21T12:20:30.660Z,5.97
2023-08-21T12:23:10.637Z,4.55
2023-08-21T12:25:50.821Z,6.65
2023-08-21T12:28:31.692Z,4.75
2023-08-21T12:31:13.618Z,5.20
2023-08-21T12:33:53.928Z,4.30
2023-08-21T12:36:37.938Z,4.43
2023-08-21T12:39:18.877Z,4.07
2023-08-21T12:41:58.993Z,6.60
2023-08-21T12:44:39.871Z,4.15
2023-08-21T12:47:20.129Z,5.95
2023-08-21T12:50:00.174Z,4.68
2023-08-21T12:52:42.321Z,4.00
2023-08-21T12:55:22.438Z,3.78
2023-08-21T12:58:02.856Z,4.38
2023-08-21T13:00:43.358Z,4.22
2023-08-21T13:03:25.910Z,4.50
2023-08-21T13:06:07.020Z,6.78
2023-08-21T13:08:47.785Z,5.15
2023-08-21T13:11:27.933Z,6.93
2023-08-21T13:14:08.266Z,5.60
2023-08-21T13:16:48.586Z,4.68
2023-08-21T13:19:38.409Z,5.30
2023-08-21T13:22:18.970Z,7.30
2023-08-21T13:24:59.706Z,8.23
2023-08-21T13:27:39.985Z,4.50
2023-08-21T13:30:21.453Z,7.28
2023-08-21T13:33:01.950Z,8.68
2023-08-21T13:35:42.020Z,6.00
2023-08-21T13:38:22.274Z,4.47
2023-08-21T13:41:03.175Z,6.90
2023-08-21T13:43:46.218Z,4.53
2023-08-21T13:46:26.488Z,7.82
2023-08-21T13:49:07.401Z,5.10
2023-08-21T13:51:47.427Z,5.65
2023-08-21T13:54:27.595Z,4.65
2023-08-21T13:57:07.943Z,4.28
2023-08-21T13:59:48.141Z,4.85
2023-08-21T14:02:31.611Z,5.50
2023-08-21T14:05:12.773Z,4.35
2023-08-21T14:07:53.024Z,3.97
2023-08-21T14:10:33.035Z,3.95
2023-08-21T14:13:13.174Z,4.68
2023-08-21T14:15:53.744Z,25.48
2023-08-21T14:18:34.048Z,4.97
2023-08-21T14:21:14.623Z,5.03
2023-08-21T14:23:54.910Z,3.38
2023-08-21T14:26:35.186Z,5.18
2023-08-21T14:29:15.409Z,3.75
2023-08-21T14:31:55.586Z,5.15
2023-08-21T14:34:37.049Z,5.00
2023-08-21T14:37:17.454Z,5.30
2023-08-21T14:39:57.755Z,6.43
2023-08-21T14:43:04.427Z,6.07
2023-08-21T14:45:44.840Z,4.43
2023-08-21T14:48:25.197Z,6.10
2023-08-21T14:51:06.459Z,4.13
2023-08-21T14:53:48.031Z,5.22
2023-08-21T14:56:28.724Z,4.95
2023-08-21T14:59:12.046Z,4.30
2023-08-21T15:01:52.300Z,5.78
2023-08-21T15:04:33.182Z,5.88
2023-08-21T15:07:13.416Z,3.67
2023-08-21T15:09:54.390Z,7.05
2023-08-21T15:12:35.176Z,3.67
2023-08-21T15:15:18.003Z,5.82
2023-08-21T15:18:00.086Z,3.72
2023-08-21T15:20:40.111Z,3.50
2023-08-21T15:23:20.422Z,5.72
2023-08-21T15:26:00.454Z,4.28
2023-08-21T15:28:40.732Z,3.72
2023-08-21T15:31:21.429Z,6.18
2023-08-21T15:34:09.316Z,3.17
2023-08-21T15:36:59.257Z,3.40
2023-08-21T15:39:39.765Z,3.65
2023-08-21T15:42:20.445Z,5.70
2023-08-21T15:45:00.581Z,4.10
2023-08-21T15:47:48.786Z,6.93
2023-08-21T15:50:30.002Z,3.75
2023-08-21T15:53:10.400Z,6.28
2023-08-21T15:55:50.735Z,3.80
2023-08-21T15:58:30.885Z,4.30
2023-08-21T16:01:16.302Z,6.03
2023-08-21T16:04:02.425Z,3.10
2023-08-21T16:06:42.854Z,3.47
2023-08-21T16:09:23.190Z,7.15
2023-08-21T16:12:04.309Z,3.38
2023-08-21T16:14:44.412Z,4.63
2023-08-21T16:17:24.697Z,3.78
2023-08-21T16:20:06.014Z,4.88
2023-08-21T16:22:46.463Z,3.50
2023-08-21T16:25:26.501Z,3.15
2023-08-21T16:28:06.916Z,4.03
2023-08-21T16:30:46.998Z,3.97
2023-08-21T16:33:27.017Z,3.60
2023-08-21T16:36:07.052Z,4.57
2023-08-21T16:38:47.033Z,3.80
2023-08-21T16:41:27.233Z,5.95
2023-08-21T16:44:07.440Z,6.10
2023-08-21T16:46:48.875Z,3.95
2023-08-21T16:49:29.196Z,3.40
2023-08-21T16:52:09.156Z,5.90
2023-08-21T16:54:49.142Z,4.18
2023-08-21T16:57:29.138Z,5.82
2023-08-21T17:00:12.362Z,3.78
2023-08-21T17:02:53.025Z,7.03
2023-08-21T17:05:35.369Z,3.13
2023-08-21T17:08:15.902Z,7.90
2023-08-21T17:10:56.073Z,6.07
2023-08-21T17:13:36.818Z,5.53
2023-08-21T17:16:17.518Z,6.40
2023-08-21T17:18:57.718Z,4.85
2023-08-21T17:21:37.622Z,6.53
2023-08-21T17:24:17.888Z,4.07
2023-08-21T17:27:01.677Z,5.10
2023-08-21T17:29:42.422Z,3.50
2023-08-21T17:32:22.669Z,5.20
2023-08-21T17:35:03.963Z,5.57
2023-08-21T17:37:44.052Z,4.10
2023-08-21T17:40:24.126Z,4.75
2023-08-21T17:43:04.375Z,6.22
2023-08-21T17:45:46.823Z,5.90
2023-08-21T17:48:27.290Z,4.13
2023-08-21T17:51:07.730Z,7.97
2023-08-21T17:53:47.902Z,4.07
2023-08-21T17:56:28.184Z,5.28
2023-08-21T17:59:08.402Z,4.05
2023-08-21T18:01:48.754Z,4.43
2023-08-21T18:04:31.016Z,5.43
2023-08-21T18:07:11.584Z,3.30
2023-08-21T18:09:52.496Z,4.25
2023-08-21T18:12:32.616Z,7.30
2023-08-21T18:15:12.651Z,5.60
2023-08-21T18:17:52.904Z,3.10
2023-08-21T18:20:53.284Z,6.22
2023-08-21T18:23:33.415Z,4.75
2023-08-21T18:26:14.588Z,6.07
2023-08-21T18:28:54.763Z,8.35
2023-08-21T18:31:37.269Z,3.25
2023-08-21T18:34:17.656Z,6.68
2023-08-21T18:37:00.994Z,6.20
2023-08-21T18:39:41.101Z,3.45
2023-08-21T18:42:23.372Z,6.30
2023-08-21T18:45:03.839Z,4.00
2023-08-21T18:47:44.228Z,7.93
2023-08-21T18:50:34.746Z,3.42
2023-08-21T18:53:16.584Z,7.13
2023-08-21T18:55:57.114Z,5.57
2023-08-21T18:58:40.812Z,3.83
2023-08-21T19:01:21.060Z,4.80
2023-08-21T19:04:01.247Z,6.82
2023-08-21T19:06:51.710Z,7.03
2023-08-21T19:09:36.301Z,4.78
2023-08-21T19:12:16.311Z,5.53
2023-08-21T19:14:58.759Z,5.18
2023-08-21T19:17:39.256Z,5.75
2023-08-21T19:20:19.859Z,7.80
2023-08-21T19:23:00.107Z,4.57
2023-08-21T19:25:40.314Z,7.03
2023-08-21T19:28:20.801Z,3.63
2023-08-21T19:31:01.046Z,5.50
2023-08-21T19:33:41.486Z,6.68
2023-08-21T19:36:21.471Z,4.10
2023-08-21T19:39:01.921Z,10.65
2023-08-21T19:41:42.456Z,5.38
2023-08-21T19:44:22.898Z,8.95
2023-08-21T19:47:03.503Z,7.43
2023-08-21T19:49:43.483Z,5.82
2023-08-21T19:52:23.895Z,7.97
2023-08-21T19:55:04.287Z,10.05
2023-08-21T19:57:44.519Z,7.75
2023-08-21T20:00:24.594Z,6.35
2023-08-21T20:03:05.135Z,8.15
2023-08-21T20:05:46.655Z,6.30
2023-08-21T20:08:26.799Z,7.00
2023-08-21T20:11:07.060Z,8.73
2023-08-21T20:13:47.456Z,8.07
2023-08-21T20:16:28.971Z,13.10
2023-08-21T20:19:09.799Z,5.07
2023-08-21T20:21:50.047Z,6.53
2023-08-21T20:24:31.633Z,5.63
2023-08-21T20:27:11.818Z,7.07
2023-08-21T20:29:52.243Z,6.20
2023-08-21T20:32:32.396Z,5.20
2023-08-21T20:35:12.613Z,5.07
2023-08-21T20:37:52.577Z,5.57
2023-08-21T20:40:32.618Z,5.25
2023-08-21T20:43:15.715Z,5.68
2023-08-21T20:45:55.891Z,4.13
2023-08-21T20:48:36.274Z,4.72
2023-08-21T20:51:17.160Z,6.13
2023-08-21T20:53:57.624Z,4.18
2023-08-21T20:56:37.907Z,6.18
2023-08-21T20:59:18.086Z,10.95
2023-08-21T21:01:58.253Z,4.15
2023-08-21T21:04:38.700Z,6.07
2023-08-21T21:07:18.664Z,10.95
2023-08-21T21:09:58.934Z,6.47
2023-08-21T21:12:39.336Z,3.88
2023-08-21T21:15:19.361Z,5.88
2023-08-21T21:17:59.813Z,6.97
2023-08-21T21:20:39.821Z,6.45
2023-08-21T21:23:20.196Z,5.78
2023-08-21T21:26:01.772Z,7.50
2023-08-21T21:28:41.966Z,8.07
2023-08-21T21:31:21.940Z,8.48
2023-08-21T21:34:02.501Z,8.40
2023-08-21T21:36:44.926Z,7.32
2023-08-21T21:39:24.975Z,6.25
2023-08-21T21:42:05.253Z,6.10
2023-08-21T21:44:45.576Z,7.90
2023-08-21T21:47:25.809Z,7.22
2023-08-21T21:50:06.839Z,6.07
2023-08-21T21:52:47.077Z,8.68
2023-08-21T21:55:27.777Z,6.13
2023-08-21T21:58:07.998Z,10.32
2023-08-21T22:00:48.343Z,6.43
2023-08-21T22:03:30.303Z,5.28
2023-08-21T22:06:10.511Z,12.32
2023-08-21T22:08:51.961Z,9.73
2023-08-21T22:11:32.205Z,10.55
2023-08-21T22:14:12.641Z,5.47
2023-08-21T22:16:52.645Z,6.60
2023-08-21T22:19:32.765Z,9.15
2023-08-21T22:22:13.176Z,5.03
2023-08-21T22:24:53.485Z,7.82
2023-08-21T22:27:33.417Z,4.32
2023-08-21T22:30:13.816Z,5.57
2023-08-21T22:32:54.583Z,6.60
2023-08-21T22:35:34.844Z,6.93
2023-08-21T22:38:14.795Z,6.32
2023-08-21T22:40:54.891Z,8.43
2023-08-21T22:43:34.806Z,7.45
2023-08-21T22:46:15.039Z,9.23
2023-08-21T22:48:55.245Z,5.85
2023-08-21T22:51:38.670Z,11.77
2023-08-21T22:54:19.685Z,6.85
2023-08-21T22:57:00.693Z,6.03
2023-08-21T22:59:40.953Z,6.22
2023-08-21T23:02:21.406Z,10.70
2023-08-21T23:05:01.654Z,8.48
2023-08-21T23:07:41.910Z,5.70
2023-08-21T23:10:22.299Z,8.20
2023-08-21T23:13:02.840Z,10.23
2023-08-21T23:15:50.307Z,7.40
2023-08-21T23:18:30.626Z,9.43
2023-08-21T23:21:10.976Z,11.38
2023-08-21T23:23:51.298Z,6.07
2023-08-21T23:26:31.456Z,6.47
2023-08-21T23:29:12.244Z,7.20
2023-08-21T23:31:52.662Z,9.02
2023-08-21T23:34:32.754Z,9.73
2023-08-21T23:37:13.127Z,7.07
2023-08-21T23:39:53.322Z,6.57
2023-08-21T23:42:33.863Z,5.60
2023-08-21T23:45:14.196Z,7.55
2023-08-21T23:47:54.305Z,11.25
2023-08-21T23:50:34.519Z,5.65
2023-08-21T23:53:14.687Z,4.93
2023-08-21T23:55:55.013Z,7.38
2023-08-21T23:58:35.950Z,9.77
